sensor_id;sensor_type;location;lat;lon;timestamp;P1;durP1;ratioP1;P2;durP2;ratioP2
11677;SDS011;5895;41.950;24.372;2022-08-23T00:01:41;19.05;;;16.20;;
11677;SDS011;5895;41.950;24.372;2022-08-23T00:04:11;19.02;;;16.98;;
11677;SDS011;5895;41.950;24.372;2022-08-23T00:06:40;18.42;;;16.50;;
11677;SDS011;5895;41.950;24.372;2022-08-23T00:09:08;17.50;;;15.70;;
11677;SDS011;5895;41.950;24.372;2022-08-23T00:11:37;17.08;;;15.52;;
11677;SDS011;5895;41.950;24.372;2022-08-23T00:14:07;20.08;;;15.55;;
11677;SDS011;5895;41.950;24.372;2022-08-23T00:16:36;17.83;;;15.93;;
11677;SDS011;5895;41.950;24.372;2022-08-23T00:19:07;17.50;;;15.63;;
11677;SDS011;5895;41.950;24.372;2022-08-23T00:21:36;16.08;;;14.50;;
11677;SDS011;5895;41.950;24.372;2022-08-23T00:24:04;16.38;;;14.85;;
11677;SDS011;5895;41.950;24.372;2022-08-23T00:26:49;16.38;;;14.57;;
11677;SDS011;5895;41.950;24.372;2022-08-23T00:29:18;15.93;;;14.48;;
11677;SDS011;5895;41.950;24.372;2022-08-23T00:31:46;15.63;;;13.88;;
11677;SDS011;5895;41.950;24.372;2022-08-23T00:34:15;15.85;;;14.32;;
11677;SDS011;5895;41.950;24.372;2022-08-23T00:36:43;16.48;;;14.98;;
11677;SDS011;5895;41.950;24.372;2022-08-23T00:39:10;17.92;;;16.23;;
11677;SDS011;5895;41.950;24.372;2022-08-23T00:41:38;16.83;;;15.23;;
11677;SDS011;5895;41.950;24.372;2022-08-23T00:44:06;17.00;;;15.07;;
11677;SDS011;5895;41.950;24.372;2022-08-23T00:46:58;27.90;;;17.45;;
11677;SDS011;5895;41.950;24.372;2022-08-23T00:49:44;19.15;;;16.95;;
11677;SDS011;5895;41.950;24.372;2022-08-23T00:52:20;15.52;;;14.02;;
11677;SDS011;5895;41.950;24.372;2022-08-23T00:54:52;17.27;;;15.57;;
11677;SDS011;5895;41.950;24.372;2022-08-23T00:57:21;17.02;;;15.43;;
11677;SDS011;5895;41.950;24.372;2022-08-23T00:59:48;17.25;;;15.65;;
11677;SDS011;5895;41.950;24.372;2022-08-23T01:02:16;17.48;;;15.77;;
11677;SDS011;5895;41.950;24.372;2022-08-23T01:04:47;18.52;;;16.13;;
11677;SDS011;5895;41.950;24.372;2022-08-23T01:07:20;19.23;;;17.13;;
11677;SDS011;5895;41.950;24.372;2022-08-23T01:09:58;17.10;;;15.40;;
11677;SDS011;5895;41.950;24.372;2022-08-23T01:12:29;17.85;;;15.93;;
11677;SDS011;5895;41.950;24.372;2022-08-23T01:15:02;17.23;;;15.55;;
11677;SDS011;5895;41.950;24.372;2022-08-23T01:17:37;17.85;;;16.05;;
11677;SDS011;5895;41.950;24.372;2022-08-23T01:20:09;16.02;;;14.32;;
11677;SDS011;5895;41.950;24.372;2022-08-23T01:22:40;17.00;;;15.38;;
11677;SDS011;5895;41.950;24.372;2022-08-23T01:25:15;15.63;;;13.85;;
11677;SDS011;5895;41.950;24.372;2022-08-23T01:27:45;14.48;;;13.00;;
11677;SDS011;5895;41.950;24.372;2022-08-23T01:30:14;15.73;;;14.13;;
11677;SDS011;5895;41.950;24.372;2022-08-23T01:32:44;16.15;;;14.48;;
11677;SDS011;5895;41.950;24.372;2022-08-23T01:35:14;16.80;;;15.10;;
11677;SDS011;5895;41.950;24.372;2022-08-23T01:37:42;18.38;;;15.60;;
11677;SDS011;5895;41.950;24.372;2022-08-23T01:40:10;18.08;;;16.30;;
11677;SDS011;5895;41.950;24.372;2022-08-23T01:42:39;19.02;;;17.17;;
11677;SDS011;5895;41.950;24.372;2022-08-23T01:45:07;18.17;;;16.25;;
11677;SDS011;5895;41.950;24.372;2022-08-23T01:47:36;18.02;;;16.33;;
11677;SDS011;5895;41.950;24.372;2022-08-23T01:50:05;17.70;;;15.85;;
11677;SDS011;5895;41.950;24.372;2022-08-23T01:52:34;18.17;;;16.38;;
11677;SDS011;5895;41.950;24.372;2022-08-23T01:55:02;18.52;;;15.98;;
11677;SDS011;5895;41.950;24.372;2022-08-23T01:57:30;22.33;;;15.40;;
11677;SDS011;5895;41.950;24.372;2022-08-23T02:00:00;17.73;;;15.60;;
11677;SDS011;5895;41.950;24.372;2022-08-23T02:02:29;17.15;;;15.48;;
11677;SDS011;5895;41.950;24.372;2022-08-23T02:04:56;17.17;;;15.35;;
11677;SDS011;5895;41.950;24.372;2022-08-23T02:07:25;18.05;;;16.08;;
11677;SDS011;5895;41.950;24.372;2022-08-23T02:09:53;17.48;;;15.52;;
11677;SDS011;5895;41.950;24.372;2022-08-23T02:12:20;17.33;;;15.63;;
11677;SDS011;5895;41.950;24.372;2022-08-23T02:14:48;17.70;;;14.00;;
11677;SDS011;5895;41.950;24.372;2022-08-23T02:17:17;16.65;;;14.95;;
11677;SDS011;5895;41.950;24.372;2022-08-23T02:19:44;17.08;;;15.40;;
11677;SDS011;5895;41.950;24.372;2022-08-23T02:22:11;19.55;;;15.68;;
11677;SDS011;5895;41.950;24.372;2022-08-23T02:24:39;18.50;;;16.58;;
11677;SDS011;5895;41.950;24.372;2022-08-23T02:27:07;18.00;;;16.08;;
11677;SDS011;5895;41.950;24.372;2022-08-23T02:29:35;16.58;;;14.77;;
11677;SDS011;5895;41.950;24.372;2022-08-23T02:32:03;17.48;;;15.27;;
11677;SDS011;5895;41.950;24.372;2022-08-23T02:34:32;17.77;;;15.88;;
11677;SDS011;5895;41.950;24.372;2022-08-23T02:37:00;17.45;;;15.65;;
11677;SDS011;5895;41.950;24.372;2022-08-23T02:39:28;17.30;;;15.52;;
11677;SDS011;5895;41.950;24.372;2022-08-23T02:41:55;18.30;;;16.27;;
11677;SDS011;5895;41.950;24.372;2022-08-23T02:44:22;23.80;;;17.05;;
11677;SDS011;5895;41.950;24.372;2022-08-23T02:46:50;126.07;;;17.23;;
11677;SDS011;5895;41.950;24.372;2022-08-23T02:49:17;68.10;;;14.02;;
11677;SDS011;5895;41.950;24.372;2022-08-23T02:51:46;423.88;;;17.48;;
11677;SDS011;5895;41.950;24.372;2022-08-23T03:05:32;16.15;;;14.52;;
11677;SDS011;5895;41.950;24.372;2022-08-23T03:07:59;23.83;;;14.20;;
11677;SDS011;5895;41.950;24.372;2022-08-23T03:10:27;15.70;;;14.15;;
11677;SDS011;5895;41.950;24.372;2022-08-23T03:12:55;15.75;;;14.15;;
11677;SDS011;5895;41.950;24.372;2022-08-23T03:15:22;19.20;;;14.93;;
11677;SDS011;5895;41.950;24.372;2022-08-23T03:17:50;16.88;;;15.07;;
11677;SDS011;5895;41.950;24.372;2022-08-23T03:20:17;14.95;;;13.50;;
11677;SDS011;5895;41.950;24.372;2022-08-23T03:22:47;19.58;;;14.85;;
11677;SDS011;5895;41.950;24.372;2022-08-23T03:25:14;16.92;;;15.13;;
11677;SDS011;5895;41.950;24.372;2022-08-23T03:27:42;16.13;;;14.63;;
11677;SDS011;5895;41.950;24.372;2022-08-23T03:30:10;15.48;;;13.98;;
11677;SDS011;5895;41.950;24.372;2022-08-23T03:32:38;15.13;;;13.60;;
11677;SDS011;5895;41.950;24.372;2022-08-23T03:35:06;17.50;;;15.25;;
11677;SDS011;5895;41.950;24.372;2022-08-23T03:37:34;29.27;;;15.43;;
11677;SDS011;5895;41.950;24.372;2022-08-23T03:40:04;42.85;;;16.67;;
11677;SDS011;5895;41.950;24.372;2022-08-23T03:42:32;36.90;;;17.90;;
11677;SDS011;5895;41.950;24.372;2022-08-23T03:45:00;73.28;;;17.35;;
11677;SDS011;5895;41.950;24.372;2022-08-23T03:47:27;16.25;;;14.65;;
11677;SDS011;5895;41.950;24.372;2022-08-23T03:49:54;19.90;;;17.90;;
11677;SDS011;5895;41.950;24.372;2022-08-23T03:52:22;26.10;;;18.73;;
11677;SDS011;5895;41.950;24.372;2022-08-23T03:54:50;21.23;;;18.30;;
11677;SDS011;5895;41.950;24.372;2022-08-23T03:57:19;19.98;;;17.95;;
11677;SDS011;5895;41.950;24.372;2022-08-23T03:59:47;22.17;;;19.88;;
11677;SDS011;5895;41.950;24.372;2022-08-23T04:02:14;31.85;;;21.25;;
11677;SDS011;5895;41.950;24.372;2022-08-23T04:04:42;27.27;;;22.02;;
11677;SDS011;5895;41.950;24.372;2022-08-23T04:07:10;23.27;;;20.95;;
11677;SDS011;5895;41.950;24.372;2022-08-23T04:09:37;22.35;;;19.95;;
11677;SDS011;5895;41.950;24.372;2022-08-23T04:12:05;23.20;;;20.73;;
11677;SDS011;5895;41.950;24.372;2022-08-23T04:14:34;23.42;;;21.13;;
11677;SDS011;5895;41.950;24.372;2022-08-23T04:17:02;38.90;;;21.50;;
11677;SDS011;5895;41.950;24.372;2022-08-23T04:19:30;34.83;;;21.73;;
11677;SDS011;5895;41.950;24.372;2022-08-23T04:21:57;24.30;;;21.65;;
11677;SDS011;5895;41.950;24.372;2022-08-23T04:24:25;24.38;;;21.88;;
11677;SDS011;5895;41.950;24.372;2022-08-23T04:26:52;23.42;;;20.92;;
11677;SDS011;5895;41.950;24.372;2022-08-23T04:29:20;24.02;;;21.60;;
11677;SDS011;5895;41.950;24.372;2022-08-23T04:31:49;23.55;;;21.15;;
11677;SDS011;5895;41.950;24.372;2022-08-23T04:34:16;21.80;;;19.67;;
11677;SDS011;5895;41.950;24.372;2022-08-23T04:36:44;21.67;;;19.58;;
11677;SDS011;5895;41.950;24.372;2022-08-23T04:39:11;23.38;;;21.08;;
11677;SDS011;5895;41.950;24.372;2022-08-23T04:41:39;22.60;;;20.23;;
11677;SDS011;5895;41.950;24.372;2022-08-23T04:44:24;24.83;;;20.60;;
11677;SDS011;5895;41.950;24.372;2022-08-23T04:46:53;23.25;;;20.95;;
11677;SDS011;5895;41.950;24.372;2022-08-23T04:49:20;22.45;;;20.35;;
11677;SDS011;5895;41.950;24.372;2022-08-23T04:51:48;22.98;;;20.58;;
11677;SDS011;5895;41.950;24.372;2022-08-23T04:54:16;24.25;;;21.67;;
11677;SDS011;5895;41.950;24.372;2022-08-23T04:56:43;30.27;;;21.30;;
11677;SDS011;5895;41.950;24.372;2022-08-23T04:59:11;31.48;;;22.70;;
11677;SDS011;5895;41.950;24.372;2022-08-23T05:01:39;26.67;;;23.33;;
11677;SDS011;5895;41.950;24.372;2022-08-23T05:04:08;24.48;;;22.15;;
11677;SDS011;5895;41.950;24.372;2022-08-23T05:06:36;22.42;;;20.02;;
11677;SDS011;5895;41.950;24.372;2022-08-23T05:09:04;22.10;;;19.92;;
11677;SDS011;5895;41.950;24.372;2022-08-23T05:11:32;23.58;;;20.95;;
11677;SDS011;5895;41.950;24.372;2022-08-23T05:13:59;24.38;;;21.92;;
11677;SDS011;5895;41.950;24.372;2022-08-23T05:16:27;23.73;;;21.42;;
11677;SDS011;5895;41.950;24.372;2022-08-23T05:18:54;24.77;;;22.23;;
11677;SDS011;5895;41.950;24.372;2022-08-23T05:21:25;23.30;;;20.83;;
11677;SDS011;5895;41.950;24.372;2022-08-23T05:23:53;24.23;;;21.63;;
11677;SDS011;5895;41.950;24.372;2022-08-23T05:26:20;24.75;;;22.15;;
11677;SDS011;5895;41.950;24.372;2022-08-23T05:28:48;23.67;;;21.38;;
11677;SDS011;5895;41.950;24.372;2022-08-23T05:31:17;20.23;;;18.17;;
11677;SDS011;5895;41.950;24.372;2022-08-23T05:33:53;17.73;;;16.02;;
11677;SDS011;5895;41.950;24.372;2022-08-23T05:36:29;17.83;;;16.05;;
11677;SDS011;5895;41.950;24.372;2022-08-23T05:38:56;17.02;;;15.52;;
11677;SDS011;5895;41.950;24.372;2022-08-23T05:41:24;20.02;;;17.98;;
11677;SDS011;5895;41.950;24.372;2022-08-23T05:43:52;20.65;;;18.65;;
11677;SDS011;5895;41.950;24.372;2022-08-23T05:46:20;19.75;;;17.75;;
11677;SDS011;5895;41.950;24.372;2022-08-23T05:48:49;16.65;;;14.95;;
11677;SDS011;5895;41.950;24.372;2022-08-23T05:51:18;15.55;;;14.07;;
11677;SDS011;5895;41.950;24.372;2022-08-23T05:53:50;12.98;;;11.65;;
11677;SDS011;5895;41.950;24.372;2022-08-23T05:56:19;10.60;;;9.65;;
11677;SDS011;5895;41.950;24.372;2022-08-23T05:58:51;9.57;;;8.65;;
11677;SDS011;5895;41.950;24.372;2022-08-23T06:01:20;11.65;;;9.45;;
11677;SDS011;5895;41.950;24.372;2022-08-23T06:03:48;8.93;;;8.07;;
11677;SDS011;5895;41.950;24.372;2022-08-23T06:06:17;10.77;;;9.75;;
11677;SDS011;5895;41.950;24.372;2022-08-23T06:08:45;11.18;;;9.23;;
11677;SDS011;5895;41.950;24.372;2022-08-23T06:11:16;11.68;;;7.45;;
11677;SDS011;5895;41.950;24.372;2022-08-23T06:13:46;8.75;;;7.88;;
11677;SDS011;5895;41.950;24.372;2022-08-23T06:16:16;11.38;;;10.27;;
11677;SDS011;5895;41.950;24.372;2022-08-23T06:18:46;8.85;;;6.25;;
11677;SDS011;5895;41.950;24.372;2022-08-23T06:21:15;12.25;;;11.05;;
11677;SDS011;5895;41.950;24.372;2022-08-23T06:23:43;6.93;;;6.32;;
11677;SDS011;5895;41.950;24.372;2022-08-23T06:26:15;6.75;;;5.45;;
11677;SDS011;5895;41.950;24.372;2022-08-23T06:28:45;5.07;;;4.57;;
11677;SDS011;5895;41.950;24.372;2022-08-23T06:31:15;5.88;;;5.38;;
11677;SDS011;5895;41.950;24.372;2022-08-23T06:34:03;5.32;;;4.82;;
11677;SDS011;5895;41.950;24.372;2022-08-23T06:36:32;6.63;;;5.63;;
11677;SDS011;5895;41.950;24.372;2022-08-23T06:39:01;9.88;;;5.13;;
11677;SDS011;5895;41.950;24.372;2022-08-23T06:41:31;6.50;;;5.90;;
11677;SDS011;5895;41.950;24.372;2022-08-23T06:43:59;6.90;;;5.43;;
11677;SDS011;5895;41.950;24.372;2022-08-23T06:46:28;7.95;;;6.05;;
11677;SDS011;5895;41.950;24.372;2022-08-23T06:48:57;7.60;;;6.10;;
11677;SDS011;5895;41.950;24.372;2022-08-23T06:51:26;7.10;;;6.38;;
11677;SDS011;5895;41.950;24.372;2022-08-23T06:53:56;8.70;;;7.70;;
11677;SDS011;5895;41.950;24.372;2022-08-23T06:56:26;9.30;;;7.68;;
11677;SDS011;5895;41.950;24.372;2022-08-23T06:58:56;9.57;;;7.35;;
11677;SDS011;5895;41.950;24.372;2022-08-23T07:01:24;8.65;;;6.93;;
11677;SDS011;5895;41.950;24.372;2022-08-23T07:03:57;9.18;;;7.30;;
11677;SDS011;5895;41.950;24.372;2022-08-23T07:06:26;14.48;;;13.07;;
11677;SDS011;5895;41.950;24.372;2022-08-23T07:08:55;14.85;;;13.45;;
11677;SDS011;5895;41.950;24.372;2022-08-23T07:11:24;17.35;;;15.63;;
11677;SDS011;5895;41.950;24.372;2022-08-23T07:13:58;11.52;;;10.07;;
11677;SDS011;5895;41.950;24.372;2022-08-23T07:16:30;17.20;;;15.23;;
11677;SDS011;5895;41.950;24.372;2022-08-23T07:18:59;16.83;;;14.25;;
11677;SDS011;5895;41.950;24.372;2022-08-23T07:21:27;16.25;;;14.65;;
11677;SDS011;5895;41.950;24.372;2022-08-23T07:23:55;15.27;;;13.88;;
11677;SDS011;5895;41.950;24.372;2022-08-23T07:26:22;15.23;;;13.63;;
11677;SDS011;5895;41.950;24.372;2022-08-23T07:28:50;16.05;;;14.45;;
11677;SDS011;5895;41.950;24.372;2022-08-23T07:31:21;16.02;;;14.45;;
11677;SDS011;5895;41.950;24.372;2022-08-23T07:33:53;14.82;;;13.50;;
11677;SDS011;5895;41.950;24.372;2022-08-23T07:36:23;17.10;;;14.10;;
11677;SDS011;5895;41.950;24.372;2022-08-23T07:38:52;16.90;;;14.75;;
11677;SDS011;5895;41.950;24.372;2022-08-23T07:41:22;17.08;;;15.30;;
11677;SDS011;5895;41.950;24.372;2022-08-23T07:43:52;16.20;;;14.50;;
11677;SDS011;5895;41.950;24.372;2022-08-23T07:46:21;15.75;;;14.00;;
11677;SDS011;5895;41.950;24.372;2022-08-23T07:48:49;13.90;;;12.68;;
11677;SDS011;5895;41.950;24.372;2022-08-23T07:51:17;16.67;;;13.43;;
11677;SDS011;5895;41.950;24.372;2022-08-23T07:53:46;15.32;;;12.35;;
11677;SDS011;5895;41.950;24.372;2022-08-23T07:56:14;14.52;;;13.13;;
11677;SDS011;5895;41.950;24.372;2022-08-23T07:58:44;17.40;;;13.38;;
11677;SDS011;5895;41.950;24.372;2022-08-23T08:01:12;13.90;;;12.50;;
11677;SDS011;5895;41.950;24.372;2022-08-23T08:03:46;14.57;;;13.25;;
11677;SDS011;5895;41.950;24.372;2022-08-23T08:06:15;16.10;;;14.60;;
11677;SDS011;5895;41.950;24.372;2022-08-23T08:08:45;16.10;;;13.93;;
11677;SDS011;5895;41.950;24.372;2022-08-23T08:11:17;14.40;;;12.90;;
11677;SDS011;5895;41.950;24.372;2022-08-23T08:13:47;14.98;;;13.45;;
11677;SDS011;5895;41.950;24.372;2022-08-23T08:16:20;12.35;;;11.10;;
11677;SDS011;5895;41.950;24.372;2022-08-23T08:18:52;12.18;;;10.35;;
11677;SDS011;5895;41.950;24.372;2022-08-23T08:21:20;11.27;;;9.38;;
11677;SDS011;5895;41.950;24.372;2022-08-23T08:23:48;11.80;;;10.70;;
11677;SDS011;5895;41.950;24.372;2022-08-23T08:26:16;10.85;;;9.88;;
11677;SDS011;5895;41.950;24.372;2022-08-23T08:28:45;11.88;;;10.68;;
11677;SDS011;5895;41.950;24.372;2022-08-23T08:31:12;12.27;;;11.18;;
11677;SDS011;5895;41.950;24.372;2022-08-23T08:33:40;13.88;;;10.82;;
11677;SDS011;5895;41.950;24.372;2022-08-23T08:36:10;10.25;;;9.20;;
11677;SDS011;5895;41.950;24.372;2022-08-23T08:38:55;10.48;;;9.00;;
11677;SDS011;5895;41.950;24.372;2022-08-23T08:41:24;15.73;;;14.25;;
11677;SDS011;5895;41.950;24.372;2022-08-23T08:44:09;17.10;;;14.85;;
11677;SDS011;5895;41.950;24.372;2022-08-23T08:46:42;15.43;;;13.93;;
11677;SDS011;5895;41.950;24.372;2022-08-23T08:49:13;12.43;;;11.25;;
11677;SDS011;5895;41.950;24.372;2022-08-23T08:51:59;18.00;;;12.75;;
11677;SDS011;5895;41.950;24.372;2022-08-23T08:54:43;13.88;;;12.60;;
11677;SDS011;5895;41.950;24.372;2022-08-23T08:57:28;13.93;;;12.30;;
11677;SDS011;5895;41.950;24.372;2022-08-23T09:00:20;12.52;;;11.40;;
11677;SDS011;5895;41.950;24.372;2022-08-23T09:02:51;13.13;;;11.73;;
11677;SDS011;5895;41.950;24.372;2022-08-23T09:05:23;11.40;;;10.35;;
11677;SDS011;5895;41.950;24.372;2022-08-23T09:08:01;14.05;;;11.18;;
11677;SDS011;5895;41.950;24.372;2022-08-23T09:13:55;10.85;;;9.85;;
11677;SDS011;5895;41.950;24.372;2022-08-23T09:16:49;10.70;;;9.60;;
11677;SDS011;5895;41.950;24.372;2022-08-23T09:19:19;10.57;;;9.57;;
11677;SDS011;5895;41.950;24.372;2022-08-23T09:21:48;11.25;;;9.88;;
11677;SDS011;5895;41.950;24.372;2022-08-23T09:24:24;10.10;;;9.07;;
11677;SDS011;5895;41.950;24.372;2022-08-23T09:26:52;10.05;;;9.15;;
11677;SDS011;5895;41.950;24.372;2022-08-23T09:29:21;9.82;;;9.02;;
11677;SDS011;5895;41.950;24.372;2022-08-23T09:31:51;9.88;;;8.88;;
11677;SDS011;5895;41.950;24.372;2022-08-23T09:34:37;10.13;;;9.23;;
11677;SDS011;5895;41.950;24.372;2022-08-23T09:37:10;9.40;;;8.50;;
11677;SDS011;5895;41.950;24.372;2022-08-23T09:39:45;14.07;;;9.55;;
11677;SDS011;5895;41.950;24.372;2022-08-23T09:42:28;10.82;;;9.77;;
11677;SDS011;5895;41.950;24.372;2022-08-23T09:45:00;9.98;;;8.63;;
11677;SDS011;5895;41.950;24.372;2022-08-23T09:47:31;9.73;;;8.50;;
11677;SDS011;5895;41.950;24.372;2022-08-23T09:50:15;13.13;;;8.88;;
11677;SDS011;5895;41.950;24.372;2022-08-23T09:52:55;10.05;;;9.10;;
11677;SDS011;5895;41.950;24.372;2022-08-23T09:55:28;9.60;;;8.60;;
11677;SDS011;5895;41.950;24.372;2022-08-23T09:58:00;11.18;;;10.18;;
11677;SDS011;5895;41.950;24.372;2022-08-23T10:00:32;11.13;;;8.52;;
11677;SDS011;5895;41.950;24.372;2022-08-23T10:05:51;9.98;;;8.15;;
11677;SDS011;5895;41.950;24.372;2022-08-23T10:08:21;14.25;;;8.65;;
11677;SDS011;5895;41.950;24.372;2022-08-23T10:10:53;9.32;;;8.20;;
11677;SDS011;5895;41.950;24.372;2022-08-23T10:13:24;12.90;;;9.68;;
11677;SDS011;5895;41.950;24.372;2022-08-23T10:15:55;10.50;;;9.00;;
11677;SDS011;5895;41.950;24.372;2022-08-23T10:18:38;9.80;;;8.88;;
11677;SDS011;5895;41.950;24.372;2022-08-23T10:21:16;9.43;;;8.52;;
11677;SDS011;5895;41.950;24.372;2022-08-23T10:23:51;10.45;;;9.55;;
11677;SDS011;5895;41.950;24.372;2022-08-23T10:26:53;10.85;;;9.73;;
11677;SDS011;5895;41.950;24.372;2022-08-23T10:30:04;7.30;;;6.45;;
11677;SDS011;5895;41.950;24.372;2022-08-23T10:32:37;6.35;;;5.70;;
11677;SDS011;5895;41.950;24.372;2022-08-23T10:35:22;9.85;;;5.88;;
11677;SDS011;5895;41.950;24.372;2022-08-23T10:38:00;5.95;;;5.43;;
11677;SDS011;5895;41.950;24.372;2022-08-23T10:40:45;7.72;;;6.40;;
11677;SDS011;5895;41.950;24.372;2022-08-23T10:43:21;6.28;;;5.78;;
11677;SDS011;5895;41.950;24.372;2022-08-23T10:45:59;7.18;;;6.45;;
11677;SDS011;5895;41.950;24.372;2022-08-23T10:48:29;8.05;;;6.45;;
11677;SDS011;5895;41.950;24.372;2022-08-23T10:51:02;7.28;;;6.40;;
11677;SDS011;5895;41.950;24.372;2022-08-23T10:53:35;8.15;;;6.32;;
11677;SDS011;5895;41.950;24.372;2022-08-23T10:56:10;7.43;;;6.28;;
11677;SDS011;5895;41.950;24.372;2022-08-23T10:58:47;7.43;;;6.70;;
11677;SDS011;5895;41.950;24.372;2022-08-23T11:01:19;7.78;;;6.93;;
11677;SDS011;5895;41.950;24.372;2022-08-23T11:03:55;7.88;;;6.70;;
11677;SDS011;5895;41.950;24.372;2022-08-23T11:06:40;8.77;;;6.65;;
11677;SDS011;5895;41.950;24.372;2022-08-23T11:09:28;7.57;;;6.30;;
11677;SDS011;5895;41.950;24.372;2022-08-23T11:12:14;8.63;;;6.40;;
11677;SDS011;5895;41.950;24.372;2022-08-23T11:15:03;7.47;;;6.22;;
11677;SDS011;5895;41.950;24.372;2022-08-23T11:17:53;9.90;;;6.97;;
11677;SDS011;5895;41.950;24.372;2022-08-23T11:29:32;8.85;;;6.90;;
11677;SDS011;5895;41.950;24.372;2022-08-23T11:35:05;10.88;;;6.65;;
11677;SDS011;5895;41.950;24.372;2022-08-23T11:37:49;10.10;;;6.80;;
11677;SDS011;5895;41.950;24.372;2022-08-23T11:40:40;8.35;;;6.90;;
11677;SDS011;5895;41.950;24.372;2022-08-23T11:43:33;9.95;;;6.75;;
11677;SDS011;5895;41.950;24.372;2022-08-23T11:49:14;8.48;;;7.07;;
11677;SDS011;5895;41.950;24.372;2022-08-23T11:52:09;8.73;;;6.47;;
11677;SDS011;5895;41.950;24.372;2022-08-23T11:54:59;8.80;;;6.78;;
11677;SDS011;5895;41.950;24.372;2022-08-23T12:00:54;10.63;;;6.72;;
11677;SDS011;5895;41.950;24.372;2022-08-23T12:03:32;8.25;;;7.10;;
11677;SDS011;5895;41.950;24.372;2022-08-23T12:06:11;8.75;;;7.43;;
11677;SDS011;5895;41.950;24.372;2022-08-23T12:09:03;10.50;;;9.23;;
11677;SDS011;5895;41.950;24.372;2022-08-23T12:14:50;11.35;;;10.20;;
11677;SDS011;5895;41.950;24.372;2022-08-23T12:20:29;10.15;;;9.18;;
11677;SDS011;5895;41.950;24.372;2022-08-23T12:23:06;11.45;;;9.68;;
11677;SDS011;5895;41.950;24.372;2022-08-23T12:25:40;10.02;;;9.13;;
11677;SDS011;5895;41.950;24.372;2022-08-23T12:31:15;10.63;;;9.52;;
11677;SDS011;5895;41.950;24.372;2022-08-23T12:33:49;12.35;;;9.10;;
11677;SDS011;5895;41.950;24.372;2022-08-23T12:36:31;10.18;;;9.20;;
11677;SDS011;5895;41.950;24.372;2022-08-23T12:39:18;10.70;;;9.60;;
11677;SDS011;5895;41.950;24.372;2022-08-23T12:41:51;12.93;;;9.65;;
11677;SDS011;5895;41.950;24.372;2022-08-23T12:44:22;13.50;;;9.80;;
11677;SDS011;5895;41.950;24.372;2022-08-23T12:46:51;11.82;;;10.10;;
11677;SDS011;5895;41.950;24.372;2022-08-23T12:49:23;11.02;;;10.02;;
11677;SDS011;5895;41.950;24.372;2022-08-23T12:51:55;12.13;;;10.93;;
11677;SDS011;5895;41.950;24.372;2022-08-23T12:54:37;12.30;;;11.13;;
11677;SDS011;5895;41.950;24.372;2022-08-23T12:57:14;12.68;;;11.50;;
11677;SDS011;5895;41.950;24.372;2022-08-23T12:59:45;11.80;;;10.63;;
11677;SDS011;5895;41.950;24.372;2022-08-23T13:02:22;13.48;;;12.07;;
11677;SDS011;5895;41.950;24.372;2022-08-23T13:04:53;12.80;;;11.63;;
11677;SDS011;5895;41.950;24.372;2022-08-23T13:07:30;12.38;;;11.20;;
11677;SDS011;5895;41.950;24.372;2022-08-23T13:10:01;12.15;;;11.05;;
11677;SDS011;5895;41.950;24.372;2022-08-23T13:12:30;11.43;;;10.15;;
11677;SDS011;5895;41.950;24.372;2022-08-23T13:14:58;15.32;;;11.35;;
11677;SDS011;5895;41.950;24.372;2022-08-23T13:17:31;11.75;;;10.60;;
11677;SDS011;5895;41.950;24.372;2022-08-23T13:20:20;12.60;;;11.18;;
11677;SDS011;5895;41.950;24.372;2022-08-23T13:22:56;13.77;;;12.20;;
11677;SDS011;5895;41.950;24.372;2022-08-23T13:25:28;10.82;;;9.73;;
11677;SDS011;5895;41.950;24.372;2022-08-23T13:27:59;11.98;;;10.30;;
11677;SDS011;5895;41.950;24.372;2022-08-23T13:30:29;12.57;;;9.73;;
11677;SDS011;5895;41.950;24.372;2022-08-23T13:33:17;13.20;;;10.68;;
11677;SDS011;5895;41.950;24.372;2022-08-23T13:35:49;11.80;;;10.40;;
11677;SDS011;5895;41.950;24.372;2022-08-23T13:38:31;12.32;;;10.30;;
11677;SDS011;5895;41.950;24.372;2022-08-23T13:41:02;11.85;;;10.40;;
11677;SDS011;5895;41.950;24.372;2022-08-23T13:43:36;12.00;;;10.18;;
11677;SDS011;5895;41.950;24.372;2022-08-23T13:46:12;11.32;;;10.38;;
11677;SDS011;5895;41.950;24.372;2022-08-23T13:48:45;11.73;;;10.52;;
11677;SDS011;5895;41.950;24.372;2022-08-23T13:51:18;13.07;;;10.60;;
11677;SDS011;5895;41.950;24.372;2022-08-23T13:53:51;12.85;;;10.32;;
11677;SDS011;5895;41.950;24.372;2022-08-23T13:56:22;17.98;;;10.77;;
11677;SDS011;5895;41.950;24.372;2022-08-23T13:58:52;12.63;;;10.95;;
11677;SDS011;5895;41.950;24.372;2022-08-23T14:01:23;12.95;;;10.85;;
11677;SDS011;5895;41.950;24.372;2022-08-23T14:03:52;15.18;;;10.45;;
11677;SDS011;5895;41.950;24.372;2022-08-23T14:06:20;11.68;;;10.57;;
11677;SDS011;5895;41.950;24.372;2022-08-23T14:08:48;11.80;;;10.60;;
11677;SDS011;5895;41.950;24.372;2022-08-23T14:11:16;12.77;;;11.50;;
11677;SDS011;5895;41.950;24.372;2022-08-23T14:13:46;12.55;;;11.23;;
11677;SDS011;5895;41.950;24.372;2022-08-23T14:16:17;13.70;;;11.13;;
11677;SDS011;5895;41.950;24.372;2022-08-23T14:18:50;14.90;;;11.30;;
11677;SDS011;5895;41.950;24.372;2022-08-23T14:21:18;15.10;;;11.07;;
11677;SDS011;5895;41.950;24.372;2022-08-23T14:23:46;12.45;;;11.15;;
11677;SDS011;5895;41.950;24.372;2022-08-23T14:26:16;14.38;;;11.07;;
11677;SDS011;5895;41.950;24.372;2022-08-23T14:28:48;12.93;;;11.70;;
11677;SDS011;5895;41.950;24.372;2022-08-23T14:31:17;12.77;;;11.38;;
11677;SDS011;5895;41.950;24.372;2022-08-23T14:33:45;14.30;;;11.48;;
11677;SDS011;5895;41.950;24.372;2022-08-23T14:36:14;12.52;;;11.32;;
11677;SDS011;5895;41.950;24.372;2022-08-23T14:38:42;13.75;;;12.38;;
11677;SDS011;5895;41.950;24.372;2022-08-23T14:41:10;14.27;;;12.48;;
11677;SDS011;5895;41.950;24.372;2022-08-23T14:43:43;14.57;;;13.27;;
11677;SDS011;5895;41.950;24.372;2022-08-23T14:46:13;15.55;;;13.52;;
11677;SDS011;5895;41.950;24.372;2022-08-23T14:48:41;14.13;;;12.52;;
11677;SDS011;5895;41.950;24.372;2022-08-23T14:51:11;14.43;;;13.02;;
11677;SDS011;5895;41.950;24.372;2022-08-23T14:53:49;15.43;;;13.00;;
11677;SDS011;5895;41.950;24.372;2022-08-23T14:56:17;14.80;;;13.30;;
11677;SDS011;5895;41.950;24.372;2022-08-23T14:58:45;14.95;;;13.55;;
11677;SDS011;5895;41.950;24.372;2022-08-23T15:01:15;14.63;;;12.88;;
11677;SDS011;5895;41.950;24.372;2022-08-23T15:03:44;14.80;;;13.25;;
11677;SDS011;5895;41.950;24.372;2022-08-23T15:06:13;14.55;;;13.15;;
11677;SDS011;5895;41.950;24.372;2022-08-23T15:08:41;15.02;;;13.55;;
11677;SDS011;5895;41.950;24.372;2022-08-23T15:11:10;16.08;;;13.80;;
11677;SDS011;5895;41.950;24.372;2022-08-23T15:13:40;17.77;;;13.38;;
11677;SDS011;5895;41.950;24.372;2022-08-23T15:16:10;15.82;;;14.23;;
11677;SDS011;5895;41.950;24.372;2022-08-23T15:18:45;14.73;;;13.32;;
11677;SDS011;5895;41.950;24.372;2022-08-23T15:21:16;15.85;;;14.07;;
11677;SDS011;5895;41.950;24.372;2022-08-23T15:23:45;15.15;;;13.75;;
11677;SDS011;5895;41.950;24.372;2022-08-23T15:26:14;15.30;;;13.50;;
11677;SDS011;5895;41.950;24.372;2022-08-23T15:28:45;15.07;;;13.25;;
11677;SDS011;5895;41.950;24.372;2022-08-23T15:31:20;14.77;;;13.38;;
11677;SDS011;5895;41.950;24.372;2022-08-23T15:33:49;22.98;;;20.60;;
11677;SDS011;5895;41.950;24.372;2022-08-23T15:36:17;15.05;;;13.65;;
11677;SDS011;5895;41.950;24.372;2022-08-23T15:38:46;15.05;;;13.00;;
11677;SDS011;5895;41.950;24.372;2022-08-23T15:41:16;14.30;;;12.80;;